Time;durP1;ratioP1;P1;durP2;ratioP2;P2;SDS_P1;SDS_P2;PMS_P1;PMS_P2;Temp;Humidity;BMP_temperature;BMP_pressure;BME280_temperature;BME280_humidity;BME280_pressure;Samples;Min_cycle;Max_cycle;Signal;HPM_P1;HPM_P2
2022/07/09 00:00:08;;;;;;;;;;;15.80;99.90;;;;;;5033681;28;20314;-75
2022/07/09 00:02:34;;;;;;;;;;;15.80;99.90;;;;;;5034829;28;19996;-74
2022/07/09 00:05:00;;;;;;;;;;;15.80;99.90;;;;;;5066302;28;20463;-75
2022/07/09 00:07:26;;;;;;;;;;;15.80;99.90;;;;;;5064349;28;19921;-74
2022/07/09 00:09:52;;;;;;;;;;;15.80;99.90;;;;;;5023124;28;20051;-74
2022/07/09 00:12:18;;;;;;;;;;;15.80;99.90;;;;;;5032597;28;20012;-74
2022/07/09 00:14:43;;;;;;;;;;;15.80;99.90;;;;;;5032421;28;19927;-74
2022/07/09 00:17:09;;;;;;;;;;;15.90;99.90;;;;;;5031049;28;20504;-85
2022/07/09 00:19:34;;;;;;;;;;;15.80;99.90;;;;;;5032575;28;20304;-74
2022/07/09 00:22:00;;;;;;;;;;;15.80;99.90;;;;;;5034033;28;19935;-74
2022/07/09 00:24:26;;;;;;;;;;;15.80;99.90;;;;;;5034721;28;19995;-75
2022/07/09 00:26:51;;;;;;;;;;;15.80;99.90;;;;;;5034518;28;20309;-74
2022/07/09 00:29:17;;;;;;;;;;;15.80;99.90;;;;;;5031839;28;20360;-75
2022/07/09 00:31:42;;;;;;;;;;;15.80;99.90;;;;;;5033157;28;19927;-75
2022/07/09 00:34:08;;;;;;;;;;;15.70;99.90;;;;;;5032510;28;19919;-75
2022/07/09 00:36:33;;;;;;;;;;;15.70;99.90;;;;;;5030361;28;19968;-75
2022/07/09 00:38:59;;;;;;;;;;;15.70;99.90;;;;;;5027946;28;19971;-75
2022/07/09 00:41:24;;;;;;;;;;;15.70;99.90;;;;;;5033387;28;19980;-74
2022/07/09 00:43:50;;;;;;;;;;;15.70;99.90;;;;;;5028907;28;20300;-87
2022/07/09 00:46:16;;;;;;;;;;;15.70;99.90;;;;;;5026587;28;19967;-75
2022/07/09 00:48:42;;;;;;;;;;;15.70;99.90;;;;;;5034981;28;20004;-75
2022/07/09 00:51:08;;;;;;;;;;;15.60;99.90;;;;;;5022830;28;20012;-75
2022/07/09 00:53:34;;;;;;;;;;;15.60;99.90;;;;;;5065063;28;19924;-75
2022/07/09 00:56:00;;;;;;;;;;;15.60;99.90;;;;;;5026995;28;20276;-75
2022/07/09 00:58:26;;;;;;;;;;;15.60;99.90;;;;;;5043950;28;19913;-75
2022/07/09 01:00:52;;;;;;;;;;;15.60;99.90;;;;;;5033370;28;19920;-82
2022/07/09 01:03:17;;;;;;;;;;;15.60;99.90;;;;;;5032924;28;19971;-74
2022/07/09 01:05:43;;;;;;;;;;;15.60;99.90;;;;;;5034146;28;19939;-74
2022/07/09 01:08:09;;;;;;;;;;;15.60;99.90;;;;;;5032895;28;19917;-74
2022/07/09 01:10:35;;;;;;;;;;;15.60;99.90;;;;;;5033141;28;19963;-75
2022/07/09 01:13:02;;;;;;;;;;;15.60;99.90;;;;;;5032979;28;19922;-75
2022/07/09 01:15:28;;;;;;;;;;;15.50;99.90;;;;;;5064828;28;20019;-74
2022/07/09 01:17:55;;;;;;;;;;;15.40;99.90;;;;;;5034370;28;20036;-79
2022/07/09 01:20:24;;;;;;;;;;;15.40;99.90;;;;;;5027173;28;19913;-74
2022/07/09 01:22:50;;;;;;;;;;;15.40;99.90;;;;;;5032434;28;19917;-75
2022/07/09 01:25:17;;;;;;;;;;;15.40;99.90;;;;;;5021566;28;20437;-75
2022/07/09 01:27:42;;;;;;;;;;;15.30;99.90;;;;;;5032107;28;19913;-74
2022/07/09 01:30:08;;;;;;;;;;;15.30;99.90;;;;;;5032912;28;20008;-74
2022/07/09 01:32:33;;;;;;;;;;;15.30;99.90;;;;;;5032644;28;19917;-74
2022/07/09 01:34:59;;;;;;;;;;;15.30;99.90;;;;;;5035078;28;19921;-83
2022/07/09 01:37:24;;;;;;;;;;;15.30;99.90;;;;;;5036944;28;19915;-75
2022/07/09 01:39:50;;;;;;;;;;;15.20;99.90;;;;;;5038610;28;19913;-74
2022/07/09 01:42:16;;;;;;;;;;;15.30;99.90;;;;;;5032222;28;20347;-74
2022/07/09 01:44:42;;;;;;;;;;;15.20;99.90;;;;;;5032301;28;19913;-82
2022/07/09 01:47:08;;;;;;;;;;;15.20;99.90;;;;;;5034982;28;19992;-74
2022/07/09 01:49:33;;;;;;;;;;;15.30;99.90;;;;;;5036199;28;19924;-74
2022/07/09 01:51:59;;;;;;;;;;;15.30;99.90;;;;;;5038375;28;19921;-74
2022/07/09 01:54:24;;;;;;;;;;;15.30;99.90;;;;;;5036648;28;20072;-75
2022/07/09 01:56:50;;;;;;;;;;;15.30;99.90;;;;;;5029502;28;19921;-74
2022/07/09 01:59:15;;;;;;;;;;;15.30;99.90;;;;;;5029902;28;19962;-74
2022/07/09 02:01:41;;;;;;;;;;;15.30;99.90;;;;;;5035303;28;20413;-82
2022/07/09 02:04:06;;;;;;;;;;;15.40;99.90;;;;;;5068510;28;19920;-74
2022/07/09 02:06:32;;;;;;;;;;;15.40;99.90;;;;;;5031954;28;19919;-74
2022/07/09 02:08:57;;;;;;;;;;;15.40;99.90;;;;;;5035810;28;19909;-74
2022/07/09 02:11:23;;;;;;;;;;;15.40;99.90;;;;;;5027894;28;19920;-79
2022/07/09 02:13:48;;;;;;;;;;;15.40;99.90;;;;;;5033182;28;19933;-74
2022/07/09 02:16:14;;;;;;;;;;;15.40;99.90;;;;;;5030723;28;19913;-74
2022/07/09 02:18:39;;;;;;;;;;;15.40;99.90;;;;;;5037133;28;19913;-74
2022/07/09 02:21:05;;;;;;;;;;;15.40;99.90;;;;;;5036329;28;20004;-74
2022/07/09 02:23:31;;;;;;;;;;;15.40;99.90;;;;;;5032758;28;19999;-74
2022/07/09 02:25:56;;;;;;;;;;;15.50;99.90;;;;;;5034606;28;19913;-74
2022/07/09 02:28:22;;;;;;;;;;;15.50;99.90;;;;;;5034262;28;19917;-85
2022/07/09 02:30:47;;;;;;;;;;;15.50;99.90;;;;;;5034764;28;19921;-75
2022/07/09 02:33:13;;;;;;;;;;;15.60;99.90;;;;;;5036427;28;19924;-74
2022/07/09 02:35:38;;;;;;;;;;;15.60;99.90;;;;;;5036859;28;20263;-74
2022/07/09 02:38:04;;;;;;;;;;;15.70;99.90;;;;;;5036286;28;20296;-75
2022/07/09 02:40:30;;;;;;;;;;;15.80;99.90;;;;;;5035938;28;19913;-74
2022/07/09 02:42:55;;;;;;;;;;;15.70;99.90;;;;;;5036358;28;19920;-74
2022/07/09 02:45:21;;;;;;;;;;;15.80;99.90;;;;;;5025848;28;19975;-74
2022/07/09 02:47:46;;;;;;;;;;;15.70;99.90;;;;;;5033405;28;19913;-75
2022/07/09 02:50:12;;;;;;;;;;;15.70;99.90;;;;;;5034145;28;19924;-74
2022/07/09 02:52:37;;;;;;;;;;;15.70;99.90;;;;;;5026990;28;20311;-74
2022/07/09 02:55:03;;;;;;;;;;;15.70;99.90;;;;;;5034843;28;19925;-74
2022/07/09 02:57:28;;;;;;;;;;;15.80;99.90;;;;;;5066684;28;20316;-75
2022/07/09 02:59:54;;;;;;;;;;;15.80;99.90;;;;;;5067958;28;20367;-74
2022/07/09 03:02:19;;;;;;;;;;;15.90;99.90;;;;;;5036267;28;20004;-74
2022/07/09 03:04:45;;;;;;;;;;;15.80;99.90;;;;;;5036098;28;19909;-80
2022/07/09 03:07:11;;;;;;;;;;;15.80;99.90;;;;;;5047645;28;19928;-74
2022/07/09 03:09:36;;;;;;;;;;;15.70;99.90;;;;;;5034550;28;19921;-74
2022/07/09 03:12:02;;;;;;;;;;;15.60;99.90;;;;;;5033841;28;19943;-74
2022/07/09 03:14:27;;;;;;;;;;;15.70;99.90;;;;;;5033355;28;19913;-74
2022/07/09 03:16:53;;;;;;;;;;;15.60;99.90;;;;;;5031127;28;19991;-74
2022/07/09 03:19:19;;;;;;;;;;;15.60;99.90;;;;;;5033018;28;19917;-75
2022/07/09 03:21:44;;;;;;;;;;;15.60;99.90;;;;;;5034078;28;20003;-74
2022/07/09 03:24:10;;;;;;;;;;;15.70;99.90;;;;;;5035055;28;19967;-74
2022/07/09 03:26:35;;;;;;;;;;;15.70;99.90;;;;;;5035433;28;19913;-74
2022/07/09 03:29:01;;;;;;;;;;;15.60;99.90;;;;;;5033909;28;19967;-74
2022/07/09 03:31:27;;;;;;;;;;;15.50;99.90;;;;;;5032643;28;19921;-75
2022/07/09 03:33:53;;;;;;;;;;;15.60;99.90;;;;;;5035239;28;19979;-74
2022/07/09 03:36:19;;;;;;;;;;;15.50;99.90;;;;;;5032284;28;19913;-74
2022/07/09 03:38:44;;;;;;;;;;;15.40;99.90;;;;;;5034403;28;19928;-75
2022/07/09 03:41:10;;;;;;;;;;;15.30;99.90;;;;;;5034344;28;19920;-74
2022/07/09 03:43:35;;;;;;;;;;;15.30;99.90;;;;;;5035158;28;19920;-74
2022/07/09 03:46:01;;;;;;;;;;;15.30;99.90;;;;;;5035889;28;20008;-74
2022/07/09 03:48:26;;;;;;;;;;;15.30;99.90;;;;;;5035788;28;20301;-74
2022/07/09 03:50:52;;;;;;;;;;;15.40;99.90;;;;;;5035073;28;20020;-74
2022/07/09 03:53:18;;;;;;;;;;;15.50;99.90;;;;;;5035678;28;19916;-75
2022/07/09 03:55:43;;;;;;;;;;;15.50;99.90;;;;;;5033922;28;20643;-74
2022/07/09 03:58:09;;;;;;;;;;;15.40;99.90;;;;;;5034317;28;20412;-81
2022/07/09 04:00:34;;;;;;;;;;;15.40;99.90;;;;;;5034641;28;19966;-74
2022/07/09 04:03:00;;;;;;;;;;;15.50;99.90;;;;;;5034260;28;20010;-74
2022/07/09 04:05:25;;;;;;;;;;;15.50;99.90;;;;;;5033755;28;19916;-74
2022/07/09 04:07:51;;;;;;;;;;;15.50;99.90;;;;;;5035532;28;19960;-74
2022/07/09 04:10:16;;;;;;;;;;;15.50;99.90;;;;;;5035505;28;19909;-74
2022/07/09 04:12:42;;;;;;;;;;;15.60;99.90;;;;;;5034742;28;19921;-74
2022/07/09 04:15:08;;;;;;;;;;;15.60;99.90;;;;;;5034709;28;19980;-78
2022/07/09 04:17:34;;;;;;;;;;;15.60;99.90;;;;;;5034779;28;19923;-74
2022/07/09 04:20:00;;;;;;;;;;;15.60;99.90;;;;;;5067002;28;20284;-74
2022/07/09 04:22:26;;;;;;;;;;;15.50;99.90;;;;;;5032470;28;20020;-74
2022/07/09 04:24:51;;;;;;;;;;;15.50;99.90;;;;;;5033969;28;19913;-80
2022/07/09 04:27:17;;;;;;;;;;;15.70;99.90;;;;;;5033481;28;19918;-74
2022/07/09 04:29:42;;;;;;;;;;;15.60;99.90;;;;;;5034917;28;20386;-74
2022/07/09 04:32:08;;;;;;;;;;;15.70;99.90;;;;;;5033467;28;19920;-74
2022/07/09 04:34:34;;;;;;;;;;;15.80;99.90;;;;;;5015919;28;19947;-74
2022/07/09 04:36:59;;;;;;;;;;;15.90;99.90;;;;;;5033818;28;19920;-74
2022/07/09 04:39:25;;;;;;;;;;;15.90;99.90;;;;;;5034476;28;19963;-74
2022/07/09 04:41:50;;;;;;;;;;;15.90;99.90;;;;;;5034666;28;19913;-77
2022/07/09 04:44:16;;;;;;;;;;;15.80;99.90;;;;;;5033024;28;19990;-74
2022/07/09 04:46:43;;;;;;;;;;;15.80;99.90;;;;;;5034323;28;20269;-74
2022/07/09 04:49:09;;;;;;;;;;;15.90;99.90;;;;;;5030117;28;19913;-74
2022/07/09 04:51:34;;;;;;;;;;;16.10;99.90;;;;;;5033880;28;19917;-74
2022/07/09 04:54:00;;;;;;;;;;;16.20;99.90;;;;;;5028179;28;19928;-75
2022/07/09 04:56:25;;;;;;;;;;;16.20;99.90;;;;;;5032265;28;20067;-74
2022/07/09 04:58:51;;;;;;;;;;;16.20;99.90;;;;;;5030185;28;19928;-76
2022/07/09 05:01:23;;;;;;;;;;;16.30;99.90;;;;;;5027574;28;19948;-74
2022/07/09 05:03:49;;;;;;;;;;;16.40;99.90;;;;;;5033290;28;20328;-74
2022/07/09 05:06:15;;;;;;;;;;;16.50;99.90;;;;;;5029608;28;19917;-75
2022/07/09 05:08:40;;;;;;;;;;;16.50;99.90;;;;;;5034110;28;19909;-75
2022/07/09 05:11:06;;;;;;;;;;;16.50;99.90;;;;;;5032142;28;19925;-75
2022/07/09 05:13:32;;;;;;;;;;;16.50;99.90;;;;;;5033414;28;19956;-75
2022/07/09 05:15:58;;;;;;;;;;;16.60;99.90;;;;;;5032694;28;19920;-81
2022/07/09 05:18:23;;;;;;;;;;;16.70;99.90;;;;;;5032322;28;19917;-75
2022/07/09 05:20:49;;;;;;;;;;;16.70;99.90;;;;;;5029603;28;19956;-74
2022/07/09 05:23:14;;;;;;;;;;;16.80;99.90;;;;;;5030279;28;19917;-74
2022/07/09 05:25:40;;;;;;;;;;;16.90;99.90;;;;;;5033434;28;19917;-75
2022/07/09 05:28:05;;;;;;;;;;;17.00;99.90;;;;;;5031234;28;19913;-75
2022/07/09 05:30:36;;;;;;;;;;;17.10;99.90;;;;;;5032628;28;19920;-74
2022/07/09 05:33:03;;;;;;;;;;;17.10;99.90;;;;;;5033747;28;19964;-88
2022/07/09 05:35:28;;;;;;;;;;;17.30;99.90;;;;;;5032096;28;20000;-75
2022/07/09 05:37:54;;;;;;;;;;;17.40;99.90;;;;;;5029038;28;20011;-74
2022/07/09 05:40:19;;;;;;;;;;;17.50;99.90;;;;;;5033903;28;19920;-74
2022/07/09 05:42:45;;;;;;;;;;;17.60;99.90;;;;;;5024074;28;19917;-79
2022/07/09 05:45:10;;;;;;;;;;;17.70;99.90;;;;;;5046951;28;20007;-74
2022/07/09 05:47:36;;;;;;;;;;;17.80;99.90;;;;;;5032419;28;19968;-74
2022/07/09 05:50:02;;;;;;;;;;;17.80;99.90;;;;;;5031661;28;19988;-74
2022/07/09 05:52:27;;;;;;;;;;;17.80;99.90;;;;;;5032577;28;19917;-75
2022/07/09 05:54:53;;;;;;;;;;;17.90;99.90;;;;;;5031030;28;20304;-74
2022/07/09 05:57:18;;;;;;;;;;;17.90;99.90;;;;;;5032706;28;19978;-74
2022/07/09 05:59:44;;;;;;;;;;;18.00;99.90;;;;;;5032914;28;20197;-75
2022/07/09 06:02:09;;;;;;;;;;;18.00;99.90;;;;;;5032337;28;19936;-74
2022/07/09 06:04:35;;;;;;;;;;;18.00;99.90;;;;;;5032592;28;19913;-74
2022/07/09 06:07:00;;;;;;;;;;;18.00;99.90;;;;;;5031957;28;19920;-74
2022/07/09 06:09:26;;;;;;;;;;;18.00;99.90;;;;;;5031414;28;20215;-74
2022/07/09 06:11:51;;;;;;;;;;;18.00;99.90;;;;;;5030540;28;19925;-87
2022/07/09 06:14:19;;;;;;;;;;;18.00;99.90;;;;;;5030099;28;19921;-75
2022/07/09 06:16:46;;;;;;;;;;;18.10;99.90;;;;;;5032284;28;19924;-76
2022/07/09 06:19:15;;;;;;;;;;;18.30;99.90;;;;;;5029634;28;19916;-75
2022/07/09 06:21:41;;;;;;;;;;;18.40;99.90;;;;;;5032653;28;20287;-84
2022/07/09 06:24:06;;;;;;;;;;;18.60;99.90;;;;;;5037433;28;19948;-75
2022/07/09 06:26:33;;;;;;;;;;;18.70;99.90;;;;;;5034264;28;20279;-75
2022/07/09 06:28:59;;;;;;;;;;;18.80;99.90;;;;;;5034701;28;19914;-74
2022/07/09 06:31:25;;;;;;;;;;;18.80;99.90;;;;;;5035696;28;19971;-75
2022/07/09 06:33:50;;;;;;;;;;;18.90;99.90;;;;;;5017912;28;19955;-88
2022/07/09 06:36:16;;;;;;;;;;;18.90;99.90;;;;;;5036163;28;19917;-75
2022/07/09 06:41:25;;;;;;;;;;;18.80;99.90;;;;;;5035648;28;20420;-75
2022/07/09 06:43:51;;;;;;;;;;;18.70;99.90;;;;;;5036353;28;20003;-84
2022/07/09 06:46:17;;;;;;;;;;;18.70;99.90;;;;;;5034979;28;19968;-75
2022/07/09 06:48:42;;;;;;;;;;;18.60;99.90;;;;;;5034777;28;20197;-74
2022/07/09 06:51:08;;;;;;;;;;;18.70;99.90;;;;;;5024587;28;20210;-82
2022/07/09 06:53:33;;;;;;;;;;;18.90;99.90;;;;;;5032076;28;19943;-80
2022/07/09 06:55:59;;;;;;;;;;;18.80;99.90;;;;;;5035135;28;19934;-74
2022/07/09 06:58:24;;;;;;;;;;;18.80;99.90;;;;;;5035272;28;19920;-77
2022/07/09 07:00:50;;;;;;;;;;;18.80;99.90;;;;;;5035629;28;19913;-76
2022/07/09 07:03:15;;;;;;;;;;;18.80;99.90;;;;;;5033844;28;19939;-78
2022/07/09 07:05:41;;;;;;;;;;;18.80;99.90;;;;;;5032603;28;19958;-76
2022/07/09 07:08:07;;;;;;;;;;;18.90;99.90;;;;;;5035485;28;19996;-75
2022/07/09 07:10:32;;;;;;;;;;;18.80;99.90;;;;;;5033862;28;19913;-75
2022/07/09 07:12:58;;;;;;;;;;;18.70;99.90;;;;;;5034439;28;19936;-79
2022/07/09 07:15:23;;;;;;;;;;;18.70;99.90;;;;;;5033605;28;19917;-77
2022/07/09 07:17:49;;;;;;;;;;;18.80;99.90;;;;;;5034470;28;19917;-79
2022/07/09 07:20:17;;;;;;;;;;;18.80;99.90;;;;;;5034037;28;19952;-76
2022/07/09 07:22:43;;;;;;;;;;;18.70;99.90;;;;;;5033179;28;19962;-76
2022/07/09 07:25:08;;;;;;;;;;;18.60;99.90;;;;;;5035935;28;19921;-76
2022/07/09 07:27:34;;;;;;;;;;;18.50;99.90;;;;;;5035337;28;19998;-76
2022/07/09 07:30:00;;;;;;;;;;;18.50;99.90;;;;;;5034152;28;20008;-77
2022/07/09 07:32:25;;;;;;;;;;;18.50;99.90;;;;;;5033587;28;19920;-74
2022/07/09 07:34:51;;;;;;;;;;;18.60;99.90;;;;;;5032467;28;19913;-74
2022/07/09 07:37:16;;;;;;;;;;;18.70;99.90;;;;;;5033812;28;19923;-76
2022/07/09 07:39:42;;;;;;;;;;;18.80;99.90;;;;;;5034155;28;20251;-78
2022/07/09 07:42:07;;;;;;;;;;;18.70;99.90;;;;;;5032231;28;19920;-79
2022/07/09 07:44:33;;;;;;;;;;;18.80;99.90;;;;;;5031619;28;20312;-75
2022/07/09 07:46:59;;;;;;;;;;;18.90;99.90;;;;;;5028868;28;19980;-76
2022/07/09 07:49:25;;;;;;;;;;;19.00;99.90;;;;;;5029678;28;19963;-77
2022/07/09 07:51:51;;;;;;;;;;;18.90;99.90;;;;;;5023588;28;20277;-76
2022/07/09 07:54:16;;;;;;;;;;;19.00;99.90;;;;;;5033002;28;20346;-76
2022/07/09 07:56:42;;;;;;;;;;;19.00;99.90;;;;;;5030618;28;19960;-76
2022/07/09 07:59:07;;;;;;;;;;;19.10;99.90;;;;;;5064515;28;20228;-75
2022/07/09 08:01:33;;;;;;;;;;;19.20;99.90;;;;;;5032244;28;19925;-76
2022/07/09 08:03:58;;;;;;;;;;;19.30;99.90;;;;;;5030710;28;19924;-76
2022/07/09 08:06:24;;;;;;;;;;;19.40;99.90;;;;;;5031426;28;20292;-77
2022/07/09 08:08:50;;;;;;;;;;;19.40;99.90;;;;;;5031818;28;19959;-80
2022/07/09 08:11:15;;;;;;;;;;;19.10;99.90;;;;;;5031832;28;19971;-75
2022/07/09 08:13:41;;;;;;;;;;;19.00;99.90;;;;;;5032123;28;20320;-76
2022/07/09 08:16:07;;;;;;;;;;;19.10;99.90;;;;;;5032234;28;20000;-76
2022/07/09 08:18:32;;;;;;;;;;;19.20;99.90;;;;;;5030409;28;19913;-77
2022/07/09 08:20:58;;;;;;;;;;;19.20;99.90;;;;;;5029817;28;19917;-75
2022/07/09 08:23:24;;;;;;;;;;;19.20;99.90;;;;;;5031925;28;19921;-74
2022/07/09 08:25:52;;;;;;;;;;;19.30;99.90;;;;;;5031905;28;19917;-77
2022/07/09 08:28:18;;;;;;;;;;;19.50;99.90;;;;;;5031442;28;19925;-75
2022/07/09 08:30:43;;;;;;;;;;;19.60;99.90;;;;;;5030493;28;19925;-74
2022/07/09 08:33:09;;;;;;;;;;;19.70;99.90;;;;;;5029299;28;21248;-75
2022/07/09 08:35:34;;;;;;;;;;;19.70;99.90;;;;;;5029898;28;19948;-75
2022/07/09 08:38:00;;;;;;;;;;;19.70;99.90;;;;;;5031671;28;19913;-76
2022/07/09 08:40:26;;;;;;;;;;;19.70;99.90;;;;;;5029301;28;19913;-75
2022/07/09 08:42:53;;;;;;;;;;;20.00;99.90;;;;;;5029877;28;19967;-76
2022/07/09 08:45:19;;;;;;;;;;;19.90;99.90;;;;;;5029637;28;19940;-77
2022/07/09 08:47:45;;;;;;;;;;;19.90;99.90;;;;;;5031357;28;19913;-76
2022/07/09 08:50:11;;;;;;;;;;;20.00;99.90;;;;;;5029341;28;19921;-77
2022/07/09 08:52:38;;;;;;;;;;;20.00;99.90;;;;;;5030535;28;19924;-77
2022/07/09 08:55:05;;;;;;;;;;;19.90;99.90;;;;;;5027557;28;19924;-76
2022/07/09 08:57:31;;;;;;;;;;;19.80;99.90;;;;;;5031185;28;20340;-76
2022/07/09 08:59:57;;;;;;;;;;;19.70;99.90;;;;;;5030762;28;19913;-75
2022/07/09 09:02:22;;;;;;;;;;;19.60;99.90;;;;;;5029672;28;21187;-75
2022/07/09 09:04:48;;;;;;;;;;;19.50;99.90;;;;;;5031095;28;19932;-75
2022/07/09 09:07:17;;;;;;;;;;;19.50;99.90;;;;;;5030235;28;19990;-76
2022/07/09 09:09:43;;;;;;;;;;;19.80;99.90;;;;;;5030441;28;19921;-78
2022/07/09 09:12:09;;;;;;;;;;;19.80;99.90;;;;;;5031363;28;19936;-77
2022/07/09 09:14:35;;;;;;;;;;;19.70;99.90;;;;;;5031417;28;19913;-76
2022/07/09 09:17:09;;;;;;;;;;;19.80;99.90;;;;;;5030308;28;21424;-78
2022/07/09 09:19:35;;;;;;;;;;;19.80;99.90;;;;;;5030542;28;20212;-81
2022/07/09 09:22:01;;;;;;;;;;;19.60;99.90;;;;;;5030438;28;19913;-79
2022/07/09 09:24:27;;;;;;;;;;;19.60;99.90;;;;;;5029398;28;19914;-75
2022/07/09 09:26:56;;;;;;;;;;;19.50;99.90;;;;;;5030162;28;19913;-80
2022/07/09 09:29:21;;;;;;;;;;;19.50;99.90;;;;;;5062655;28;19991;-80
2022/07/09 09:31:48;;;;;;;;;;;19.50;99.90;;;;;;5031219;28;19971;-76
2022/07/09 09:34:15;;;;;;;;;;;19.40;99.90;;;;;;5032589;28;20312;-75
2022/07/09 09:36:42;;;;;;;;;;;19.20;99.90;;;;;;5030857;28;19948;-81
2022/07/09 09:39:07;;;;;;;;;;;19.20;99.90;;;;;;5031106;28;19920;-78
2022/07/09 09:41:33;;;;;;;;;;;19.00;99.90;;;;;;5031906;28;20144;-79
2022/07/09 09:44:02;;;;;;;;;;;19.00;99.90;;;;;;5030101;28;19921;-78
2022/07/09 09:46:27;;;;;;;;;;;19.10;99.90;;;;;;5061410;28;20006;-78
2022/07/09 09:48:55;;;;;;;;;;;19.20;99.90;;;;;;5026529;28;20336;-80
2022/07/09 09:51:21;;;;;;;;;;;19.10;99.90;;;;;;5028164;28;19964;-82
2022/07/09 09:53:48;;;;;;;;;;;19.10;99.90;;;;;;5028602;28;19979;-81
2022/07/09 09:56:15;;;;;;;;;;;19.00;99.90;;;;;;5029925;28;19921;-83
2022/07/09 09:58:41;;;;;;;;;;;18.90;99.90;;;;;;5031979;28;20211;-81
2022/07/09 10:01:07;;;;;;;;;;;18.90;99.90;;;;;;5030432;28;19917;-76
2022/07/09 10:03:33;;;;;;;;;;;18.90;99.90;;;;;;5029703;28;20251;-77
2022/07/09 10:05:59;;;;;;;;;;;19.00;99.90;;;;;;5031942;28;19970;-76
2022/07/09 10:08:25;;;;;;;;;;;18.90;99.90;;;;;;5031767;28;19924;-76
2022/07/09 10:10:51;;;;;;;;;;;18.90;99.90;;;;;;5032559;28;19921;-81
2022/07/09 10:13:23;;;;;;;;;;;18.90;99.90;;;;;;5032357;28;19933;-79
2022/07/09 10:15:49;;;;;;;;;;;19.00;99.90;;;;;;5031543;28;19917;-77
2022/07/09 10:18:18;;;;;;;;;;;19.10;99.90;;;;;;5032882;28;20326;-76
2022/07/09 10:20:44;;;;;;;;;;;19.20;99.90;;;;;;5029926;28;20388;-78
2022/07/09 10:23:19;;;;;;;;;;;19.10;99.90;;;;;;5031432;28;19921;-74
2022/07/09 10:25:46;;;;;;;;;;;19.20;99.90;;;;;;5030368;28;19971;-78
2022/07/09 10:28:16;;;;;;;;;;;19.30;99.90;;;;;;5031975;28;19924;-80
2022/07/09 10:30:42;;;;;;;;;;;19.40;99.90;;;;;;5030833;28;19917;-76
2022/07/09 10:33:21;;;;;;;;;;;19.30;99.90;;;;;;5027258;28;19921;-75
2022/07/09 10:35:48;;;;;;;;;;;19.50;99.90;;;;;;5027932;28;19924;-76
2022/07/09 10:38:14;;;;;;;;;;;19.80;99.90;;;;;;5027305;28;19929;-78
2022/07/09 10:40:42;;;;;;;;;;;19.90;99.90;;;;;;5025369;28;20008;-80
2022/07/09 10:43:08;;;;;;;;;;;20.20;99.90;;;;;;5027910;28;19921;-76
2022/07/09 10:45:34;;;;;;;;;;;20.70;99.90;;;;;;5027874;28;19921;-77
2022/07/09 10:48:00;;;;;;;;;;;20.70;99.90;;;;;;5024717;28;19943;-77
2022/07/09 10:50:27;;;;;;;;;;;20.00;99.90;;;;;;5029492;28;20015;-79
2022/07/09 10:52:53;;;;;;;;;;;19.80;99.90;;;;;;5029922;28;20263;-78
2022/07/09 10:55:19;;;;;;;;;;;19.80;99.90;;;;;;5027118;28;20023;-77
2022/07/09 10:57:45;;;;;;;;;;;19.90;99.90;;;;;;5028172;28;20370;-75
2022/07/09 11:00:16;;;;;;;;;;;19.90;99.90;;;;;;5022114;28;19929;-77
2022/07/09 11:02:51;;;;;;;;;;;20.00;99.90;;;;;;5025019;28;19924;-79
2022/07/09 11:05:16;;;;;;;;;;;20.20;99.90;;;;;;5027144;28;20063;-79
2022/07/09 11:07:42;;;;;;;;;;;20.40;99.90;;;;;;5027371;28;19999;-78
2022/07/09 11:10:18;;;;;;;;;;;20.60;99.90;;;;;;5026092;28;19971;-81
2022/07/09 11:12:47;;;;;;;;;;;20.70;99.90;;;;;;5029859;28;19932;-76
2022/07/09 11:15:16;;;;;;;;;;;20.30;99.90;;;;;;5029720;28;19923;-78
2022/07/09 11:17:42;;;;;;;;;;;19.90;99.90;;;;;;5030442;28;19955;-77
2022/07/09 11:20:10;;;;;;;;;;;19.80;99.90;;;;;;5012333;28;19952;-78
2022/07/09 11:22:35;;;;;;;;;;;19.60;99.90;;;;;;5031055;28;20008;-76
2022/07/09 11:25:01;;;;;;;;;;;19.80;99.90;;;;;;5024724;28;20055;-81
2022/07/09 11:27:26;;;;;;;;;;;20.10;99.90;;;;;;5027635;28;19920;-79
2022/07/09 11:29:52;;;;;;;;;;;20.30;99.90;;;;;;5023974;28;19917;-77
2022/07/09 11:32:18;;;;;;;;;;;20.50;99.90;;;;;;5030162;28;20224;-80
2022/07/09 11:34:52;;;;;;;;;;;20.20;99.90;;;;;;5031318;28;19921;-78
2022/07/09 11:37:24;;;;;;;;;;;20.00;99.90;;;;;;5033396;28;19917;-77
2022/07/09 11:39:51;;;;;;;;;;;20.20;99.90;;;;;;5029604;28;19938;-74
2022/07/09 11:42:17;;;;;;;;;;;20.20;99.90;;;;;;5029302;28;19966;-81
2022/07/09 11:44:52;;;;;;;;;;;20.30;99.90;;;;;;5044406;28;20251;-79
2022/07/09 11:47:21;;;;;;;;;;;20.70;99.90;;;;;;5030117;28;19924;-78
2022/07/09 11:49:48;;;;;;;;;;;20.80;99.90;;;;;;5030304;28;19920;-78
2022/07/09 11:52:18;;;;;;;;;;;20.80;99.90;;;;;;5029846;28;20452;-75
2022/07/09 11:55:02;;;;;;;;;;;21.00;99.90;;;;;;5028067;28;19966;-77
2022/07/09 11:57:29;;;;;;;;;;;21.10;99.90;;;;;;5031461;28;19939;-77
2022/07/09 11:59:55;;;;;;;;;;;21.30;99.90;;;;;;5031381;28;19921;-76
2022/07/09 12:02:29;;;;;;;;;;;21.40;99.90;;;;;;5031697;28;19921;-76
2022/07/09 12:04:55;;;;;;;;;;;21.40;99.90;;;;;;5027269;28;20339;-77
2022/07/09 12:07:21;;;;;;;;;;;21.30;99.90;;;;;;5031013;28;19921;-78
2022/07/09 12:09:56;;;;;;;;;;;21.60;99.90;;;;;;5029481;28;20015;-75
2022/07/09 12:12:22;;;;;;;;;;;21.80;99.90;;;;;;5029299;28;19929;-76
2022/07/09 12:14:47;;;;;;;;;;;21.80;99.90;;;;;;5028560;28;19917;-77
2022/07/09 12:17:20;;;;;;;;;;;21.90;99.90;;;;;;5029259;28;19960;-75
2022/07/09 12:19:45;;;;;;;;;;;21.90;99.90;;;;;;5029404;28;19921;-77
2022/07/09 12:22:11;;;;;;;;;;;21.60;99.90;;;;;;5028451;28;19935;-76
2022/07/09 12:24:37;;;;;;;;;;;21.90;99.90;;;;;;5029028;28;19917;-76
2022/07/09 12:27:03;;;;;;;;;;;22.00;99.90;;;;;;5030328;28;19968;-81
2022/07/09 12:29:28;;;;;;;;;;;22.10;99.90;;;;;;5030236;28;19921;-78
2022/07/09 12:31:54;;;;;;;;;;;22.10;99.90;;;;;;5028548;28;19956;-78
2022/07/09 12:34:19;;;;;;;;;;;21.70;99.90;;;;;;5029730;28;19917;-79
2022/07/09 12:36:45;;;;;;;;;;;21.60;99.90;;;;;;5029280;28;19936;-76
2022/07/09 12:39:10;;;;;;;;;;;21.30;99.90;;;;;;5030393;28;19917;-77
2022/07/09 12:41:36;;;;;;;;;;;21.40;99.90;;;;;;5030647;28;19917;-78
2022/07/09 12:44:01;;;;;;;;;;;21.00;99.90;;;;;;5026965;28;19917;-77
2022/07/09 12:46:27;;;;;;;;;;;21.10;99.90;;;;;;5030513;28;19917;-76
2022/07/09 12:48:53;;;;;;;;;;;21.60;99.90;;;;;;5030909;28;19917;-75
2022/07/09 12:51:18;;;;;;;;;;;21.60;99.90;;;;;;5029639;28;19972;-73
2022/07/09 12:53:44;;;;;;;;;;;21.30;99.90;;;;;;5029295;28;19921;-73
2022/07/09 12:56:10;;;;;;;;;;;20.60;99.90;;;;;;5028511;28;20003;-75
2022/07/09 12:58:35;;;;;;;;;;;20.20;99.90;;;;;;5030435;28;20320;-74
2022/07/09 13:01:01;;;;;;;;;;;19.80;99.90;;;;;;5029862;28;19917;-75
2022/07/09 13:03:26;;;;;;;;;;;19.80;99.90;;;;;;5029510;28;19921;-78
2022/07/09 13:05:53;;;;;;;;;;;20.00;99.90;;;;;;5029289;28;19917;-75
2022/07/09 13:08:18;;;;;;;;;;;20.10;99.90;;;;;;5028640;28;19961;-77
2022/07/09 13:10:44;;;;;;;;;;;20.00;99.90;;;;;;5028858;28;19968;-76
2022/07/09 13:13:09;;;;;;;;;;;19.90;99.90;;;;;;5030309;28;19924;-76
2022/07/09 13:15:36;;;;;;;;;;;19.80;99.90;;;;;;5027287;28;19923;-76
2022/07/09 13:18:01;;;;;;;;;;;19.70;99.90;;;;;;5028456;28;19917;-79
2022/07/09 13:20:27;;;;;;;;;;;19.50;99.90;;;;;;5027551;28;19983;-74
2022/07/09 13:22:53;;;;;;;;;;;19.80;99.90;;;;;;5028802;28;19921;-73
2022/07/09 13:25:18;;;;;;;;;;;19.80;99.90;;;;;;5026841;28;19933;-75
2022/07/09 13:27:44;;;;;;;;;;;20.10;99.90;;;;;;5029822;28;19921;-75
2022/07/09 13:30:10;;;;;;;;;;;20.50;99.90;;;;;;5028000;28;19956;-74
2022/07/09 13:32:36;;;;;;;;;;;20.50;99.90;;;;;;5032898;28;19921;-82
2022/07/09 13:35:01;;;;;;;;;;;20.70;99.90;;;;;;5033624;28;19921;-72
2022/07/09 13:37:27;;;;;;;;;;;20.80;99.90;;;;;;5032381;28;20380;-77
2022/07/09 13:39:53;;;;;;;;;;;20.80;99.90;;;;;;5033037;28;19925;-77
2022/07/09 13:42:18;;;;;;;;;;;20.70;99.90;;;;;;5033436;28;19917;-75
2022/07/09 13:44:44;;;;;;;;;;;20.60;99.90;;;;;;5034072;28;20304;-72
2022/07/09 13:47:10;;;;;;;;;;;20.50;99.90;;;;;;5031140;28;19921;-74
2022/07/09 13:49:35;;;;;;;;;;;20.40;99.90;;;;;;5030536;28;19928;-76
2022/07/09 13:52:01;;;;;;;;;;;20.90;99.90;;;;;;5029429;28;20395;-74
2022/07/09 13:54:27;;;;;;;;;;;20.90;99.90;;;;;;5030743;28;19917;-79
2022/07/09 13:56:52;;;;;;;;;;;20.80;99.90;;;;;;5032175;28;20007;-77
2022/07/09 13:59:18;;;;;;;;;;;20.60;99.90;;;;;;5031938;28;19917;-73
2022/07/09 14:01:43;;;;;;;;;;;20.50;99.90;;;;;;5034535;28;19928;-74
2022/07/09 14:04:09;;;;;;;;;;;20.60;99.90;;;;;;5036888;28;20376;-76
2022/07/09 14:06:35;;;;;;;;;;;20.80;99.90;;;;;;5066862;28;20420;-73
2022/07/09 14:09:01;;;;;;;;;;;20.60;99.90;;;;;;5035143;28;19921;-73
2022/07/09 14:11:27;;;;;;;;;;;20.40;99.90;;;;;;5033900;28;19971;-78